createdAt,value
2019-05-22T00:00:22.210Z,88.30
2019-05-22T00:02:52.009Z,88.30
2019-05-22T00:05:23.731Z,88.50
2019-05-22T00:07:55.516Z,88.90
2019-05-22T00:10:28.536Z,88.30
2019-05-22T00:12:59.880Z,88.60
2019-05-22T00:15:30.909Z,90.00
2019-05-22T00:18:02.507Z,88.90
2019-05-22T00:20:33.738Z,88.80
2019-05-22T00:23:06.724Z,89.00
2019-05-22T00:25:37.960Z,89.30
2019-05-22T00:28:08.359Z,89.40
2019-05-22T00:30:40.191Z,89.20
2019-05-22T00:33:10.595Z,88.70
2019-05-22T00:35:42.247Z,87.40
2019-05-22T00:38:12.081Z,87.70
2019-05-22T00:40:43.023Z,87.60
2019-05-22T00:43:17.028Z,87.90
2019-05-22T00:45:49.134Z,88.20
2019-05-22T00:48:22.860Z,88.50
2019-05-22T00:50:57.152Z,88.80
2019-05-22T00:56:20.740Z,87.90
2019-05-22T00:58:52.707Z,88.20
2019-05-22T01:01:36.632Z,87.70
2019-05-22T01:04:08.871Z,87.40
2019-05-22T01:06:38.987Z,87.70
2019-05-22T01:09:10.909Z,88.60
2019-05-22T01:11:41.387Z,88.10
2019-05-22T01:14:12.704Z,87.20
2019-05-22T01:16:43.288Z,87.00
2019-05-22T01:19:13.412Z,87.50
2019-05-22T01:21:45.190Z,88.00
2019-05-22T01:24:15.283Z,88.00
2019-05-22T01:26:46.861Z,87.40
2019-05-22T01:29:16.752Z,87.10
2019-05-22T01:31:48.279Z,86.80
2019-05-22T01:34:21.450Z,86.50
2019-05-22T01:36:53.381Z,86.30
2019-05-22T01:39:25.617Z,85.90
2019-05-22T01:41:58.719Z,86.30
2019-05-22T01:44:30.487Z,86.50
2019-05-22T01:47:04.594Z,86.70
2019-05-22T01:49:38.815Z,87.60
2019-05-22T01:52:09.827Z,87.20
2019-05-22T01:54:41.290Z,86.70
2019-05-22T01:57:12.374Z,86.70
2019-05-22T01:59:43.325Z,87.00
2019-05-22T02:02:14.498Z,87.00
2019-05-22T02:04:45.503Z,86.90
2019-05-22T02:07:15.428Z,86.60
2019-05-22T02:09:46.320Z,87.00
2019-05-22T02:12:17.801Z,87.00
2019-05-22T02:14:50.679Z,87.30
2019-05-22T02:17:24.175Z,87.20
2019-05-22T02:19:54.750Z,86.90
2019-05-22T02:22:27.063Z,86.90
2019-05-22T02:24:57.879Z,87.50
2019-05-22T02:27:28.062Z,87.30
2019-05-22T02:29:59.321Z,87.70
2019-05-22T02:32:29.496Z,88.00
2019-05-22T02:35:01.076Z,87.60
2019-05-22T02:37:33.816Z,87.30
2019-05-22T02:40:05.209Z,86.30
2019-05-22T02:42:36.941Z,85.80
2019-05-22T02:45:10.207Z,83.60
2019-05-22T02:47:40.721Z,84.20
2019-05-22T02:50:12.608Z,85.10
2019-05-22T02:52:41.676Z,85.80
2019-05-22T02:55:12.476Z,86.00
2019-05-22T02:57:42.576Z,85.60
2019-05-22T03:00:12.759Z,85.90
2019-05-22T03:02:45.530Z,85.00
2019-05-22T03:05:17.353Z,83.60
2019-05-22T03:07:48.573Z,83.70
2019-05-22T03:10:20.450Z,84.80
2019-05-22T03:12:51.516Z,83.80
2019-05-22T03:15:24.469Z,83.80
2019-05-22T03:17:58.833Z,83.60
2019-05-22T03:20:30.056Z,79.80
2019-05-22T03:23:03.228Z,81.50
2019-05-22T03:25:34.227Z,79.20
2019-05-22T03:28:06.055Z,79.70
2019-05-22T03:30:39.443Z,80.70
2019-05-22T03:33:10.309Z,78.00
2019-05-22T03:35:43.831Z,79.20
2019-05-22T03:38:13.976Z,73.10
2019-05-22T03:40:44.551Z,74.70
2019-05-22T03:43:17.206Z,75.70
2019-05-22T03:45:48.106Z,72.70
2019-05-22T03:48:18.676Z,73.00
2019-05-22T03:50:48.806Z,72.50
2019-05-22T03:53:19.641Z,73.30
2019-05-22T03:55:49.826Z,70.70
2019-05-22T03:58:20.552Z,71.80
2019-05-22T04:00:53.348Z,72.40
2019-05-22T04:03:23.723Z,72.50
2019-05-22T04:05:54.462Z,73.50
2019-05-22T04:08:26.615Z,74.10
2019-05-22T04:11:00.021Z,74.00
2019-05-22T04:13:31.126Z,73.50
2019-05-22T04:16:04.391Z,73.20
2019-05-22T04:18:35.870Z,75.00
2019-05-22T04:21:06.796Z,75.10
2019-05-22T04:23:38.216Z,74.90
2019-05-22T04:26:10.587Z,74.30
2019-05-22T04:28:43.703Z,74.50
2019-05-22T04:31:14.389Z,73.90
2019-05-22T04:33:44.835Z,69.10
2019-05-22T04:36:15.237Z,68.40
2019-05-22T04:38:45.406Z,69.50
2019-05-22T04:41:16.917Z,70.30
2019-05-22T04:43:46.755Z,69.70
2019-05-22T04:46:16.735Z,71.10
2019-05-22T04:48:46.918Z,71.40
2019-05-22T04:51:19.579Z,70.90
2019-05-22T04:53:50.057Z,69.70
2019-05-22T04:56:19.969Z,70.10
2019-05-22T04:58:49.927Z,70.90
2019-05-22T05:01:20.529Z,69.30
2019-05-22T05:03:51.133Z,69.00
2019-05-22T05:06:24.146Z,68.30
2019-05-22T05:08:54.835Z,65.80
2019-05-22T05:11:25.677Z,65.90
2019-05-22T05:13:55.859Z,68.00
2019-05-22T05:16:25.484Z,68.40
2019-05-22T05:18:55.495Z,66.80
2019-05-22T05:21:25.399Z,67.50
2019-05-22T05:23:55.254Z,68.70
2019-05-22T05:26:26.348Z,68.20
2019-05-22T05:28:56.765Z,68.30
2019-05-22T05:31:27.284Z,67.90
2019-05-22T05:33:59.942Z,69.10
2019-05-22T05:36:30.541Z,69.50
2019-05-22T05:39:00.786Z,69.20
2019-05-22T05:41:31.037Z,69.40
2019-05-22T05:44:01.258Z,70.00
2019-05-22T05:46:32.307Z,70.30
2019-05-22T05:49:05.097Z,70.20
2019-05-22T05:51:37.343Z,70.70
2019-05-22T05:54:12.116Z,70.40
2019-05-22T05:56:43.463Z,72.00
2019-05-22T05:59:15.770Z,72.20
2019-05-22T06:01:47.403Z,71.90
2019-05-22T06:04:33.584Z,71.50
2019-05-22T06:09:30.944Z,72.20
2019-05-22T06:12:05.431Z,72.20
2019-05-22T06:14:35.512Z,71.30
2019-05-22T06:17:08.891Z,71.50
2019-05-22T06:19:41.858Z,70.50
2019-05-22T06:22:12.982Z,71.40
2019-05-22T06:24:46.056Z,72.00
2019-05-22T06:27:18.061Z,72.00
2019-05-22T06:29:48.955Z,71.80
2019-05-22T06:32:22.043Z,71.70
2019-05-22T06:34:53.309Z,72.50
2019-05-22T06:37:26.030Z,72.80
2019-05-22T06:39:56.014Z,73.60
2019-05-22T06:42:26.227Z,74.40
2019-05-22T06:44:57.809Z,74.60
2019-05-22T06:47:28.808Z,74.70
2019-05-22T06:49:59.471Z,75.90
2019-05-22T06:52:29.523Z,76.90
2019-05-22T06:54:59.485Z,76.70
2019-05-22T06:57:29.698Z,76.30
2019-05-22T07:00:12.966Z,77.80
2019-05-22T07:02:34.110Z,78.10
2019-05-22T07:05:05.217Z,79.20
2019-05-22T07:07:35.186Z,81.60
2019-05-22T07:10:06.808Z,83.60
2019-05-22T07:12:37.249Z,84.80
2019-05-22T07:15:11.941Z,85.20
2019-05-22T07:17:43.571Z,85.70
2019-05-22T07:20:15.768Z,85.40
2019-05-22T07:22:46.426Z,86.10
2019-05-22T07:25:18.236Z,86.40
2019-05-22T07:27:48.817Z,87.20
2019-05-22T07:30:18.772Z,88.30
2019-05-22T07:32:49.041Z,87.10
2019-05-22T07:35:19.539Z,83.50
2019-05-22T07:37:50.217Z,82.30
2019-05-22T07:40:20.476Z,80.10
2019-05-22T07:42:52.143Z,77.00
2019-05-22T07:45:24.613Z,80.10
2019-05-22T07:47:55.545Z,79.10
2019-05-22T07:50:26.469Z,79.40
2019-05-22T07:52:56.946Z,77.80
2019-05-22T07:55:28.224Z,78.30
2019-05-22T07:58:00.989Z,78.10
2019-05-22T08:00:31.568Z,77.50
2019-05-22T08:03:02.523Z,78.10
2019-05-22T08:05:34.234Z,77.00
2019-05-22T08:08:04.247Z,76.30
2019-05-22T08:10:34.608Z,77.40
2019-05-22T08:13:04.589Z,77.40
2019-05-22T08:15:34.402Z,76.60
2019-05-22T08:18:04.761Z,77.80
2019-05-22T08:20:35.787Z,77.10
2019-05-22T08:23:07.222Z,74.70
2019-05-22T08:25:43.764Z,74.00
2019-05-22T08:28:16.500Z,73.40
2019-05-22T08:30:48.101Z,72.40
2019-05-22T08:33:20.949Z,72.40
2019-05-22T08:35:51.371Z,73.30
2019-05-22T08:38:24.056Z,71.90
2019-05-22T08:40:53.863Z,70.80
2019-05-22T08:43:24.351Z,69.30
2019-05-22T08:45:54.525Z,68.30
2019-05-22T08:48:25.868Z,67.00
2019-05-22T08:50:57.335Z,63.60
2019-05-22T08:53:28.959Z,63.30
2019-05-22T08:55:59.643Z,61.00
2019-05-22T08:58:30.255Z,57.60
2019-05-22T09:01:01.435Z,58.90
2019-05-22T09:03:31.490Z,56.70
2019-05-22T09:06:01.340Z,53.70
2019-05-22T09:08:31.615Z,51.50
2019-05-22T09:11:01.681Z,51.40
2019-05-22T09:13:32.224Z,53.80
2019-05-22T09:16:03.211Z,51.00
2019-05-22T09:18:33.252Z,50.30
2019-05-22T09:21:03.673Z,50.20
2019-05-22T09:23:35.530Z,50.00
2019-05-22T09:26:06.406Z,50.20
2019-05-22T09:28:36.257Z,51.40
2019-05-22T09:31:06.174Z,51.20
2019-05-22T09:33:37.780Z,50.40
2019-05-22T09:36:08.727Z,51.40
2019-05-22T09:38:38.852Z,49.80
2019-05-22T09:41:09.205Z,50.50
2019-05-22T09:43:39.268Z,49.90
2019-05-22T09:46:11.218Z,50.20
2019-05-22T09:48:41.624Z,49.20
2019-05-22T09:51:11.708Z,49.50
2019-05-22T09:53:41.888Z,51.80
2019-05-22T09:56:11.791Z,51.50
2019-05-22T09:58:41.773Z,50.20
2019-05-22T10:01:13.347Z,52.00
2019-05-22T10:03:43.344Z,52.20
2019-05-22T10:06:13.580Z,52.30
2019-05-22T10:08:43.937Z,53.40
2019-05-22T10:11:14.122Z,51.50
2019-05-22T10:13:44.074Z,50.30
2019-05-22T10:16:14.177Z,50.20
2019-05-22T10:18:44.180Z,50.20
2019-05-22T10:21:14.260Z,50.80
2019-05-22T10:23:44.639Z,51.30
2019-05-22T10:26:14.788Z,52.40
2019-05-22T10:28:44.615Z,51.60
2019-05-22T10:31:17.615Z,53.10
2019-05-22T10:33:46.310Z,53.10
2019-05-22T10:36:16.891Z,51.40
2019-05-22T10:38:46.774Z,51.20
2019-05-22T10:41:16.874Z,50.30
2019-05-22T10:43:47.438Z,50.10
2019-05-22T10:46:17.225Z,50.30
2019-05-22T10:48:47.772Z,51.40
2019-05-22T10:51:17.500Z,50.60
2019-05-22T10:53:47.981Z,50.70
2019-05-22T10:56:18.374Z,50.60
2019-05-22T10:58:49.578Z,50.60
2019-05-22T11:01:19.508Z,50.50
2019-05-22T11:03:49.653Z,51.80
2019-05-22T11:06:19.705Z,50.50
2019-05-22T11:08:49.618Z,50.10
2019-05-22T11:11:20.932Z,48.90
2019-05-22T11:14:00.582Z,48.10
2019-05-22T11:16:23.169Z,47.80
2019-05-22T11:18:53.507Z,48.50
2019-05-22T11:21:23.531Z,49.10
2019-05-22T11:23:53.725Z,48.40
2019-05-22T11:26:23.830Z,48.40
2019-05-22T11:28:53.633Z,49.30
2019-05-22T11:31:23.481Z,47.70
2019-05-22T11:33:54.499Z,46.80
2019-05-22T11:36:24.877Z,45.00
2019-05-22T11:38:54.863Z,47.40
2019-05-22T11:41:25.666Z,47.30
2019-05-22T11:43:55.581Z,43.30
2019-05-22T11:46:25.477Z,45.00
2019-05-22T11:48:55.481Z,44.10
2019-05-22T11:51:25.627Z,42.20
2019-05-22T11:54:08.855Z,43.40
2019-05-22T11:56:27.148Z,43.70
2019-05-22T11:58:58.122Z,44.60
2019-05-22T12:01:28.327Z,44.00
2019-05-22T12:03:59.481Z,44.50
2019-05-22T12:06:30.770Z,43.80
2019-05-22T12:09:00.978Z,43.60
2019-05-22T12:11:32.924Z,46.70
2019-05-22T12:14:03.379Z,49.70
2019-05-22T12:16:33.656Z,49.50
2019-05-22T12:19:04.312Z,50.60
2019-05-22T12:21:34.548Z,51.00
2019-05-22T12:24:04.643Z,47.70
2019-05-22T12:26:35.217Z,48.60
2019-05-22T12:29:05.390Z,48.90
2019-05-22T12:31:35.449Z,49.50
2019-05-22T12:34:07.214Z,47.80
2019-05-22T12:36:36.195Z,49.10
2019-05-22T12:39:08.351Z,51.20
2019-05-22T12:41:38.965Z,51.70
2019-05-22T12:44:08.858Z,51.70
2019-05-22T12:46:39.340Z,49.90
2019-05-22T12:49:11.754Z,49.60
2019-05-22T12:51:41.722Z,49.90
2019-05-22T12:54:12.416Z,51.00
2019-05-22T12:56:42.183Z,51.50
2019-05-22T12:59:12.551Z,51.10
2019-05-22T13:01:43.577Z,49.80
2019-05-22T13:04:14.664Z,49.20
2019-05-22T13:06:45.046Z,50.50
2019-05-22T13:09:15.125Z,50.60
2019-05-22T13:11:45.554Z,50.90
2019-05-22T13:14:16.334Z,50.20
2019-05-22T13:16:49.107Z,49.20
2019-05-22T13:19:18.660Z,49.90
2019-05-22T13:21:52.310Z,50.10
2019-05-22T13:24:23.216Z,51.50
2019-05-22T13:26:54.574Z,50.00
2019-05-22T13:29:25.801Z,49.50
2019-05-22T13:31:57.457Z,49.80
2019-05-22T13:34:27.405Z,49.30
2019-05-22T13:36:58.278Z,50.00
2019-05-22T13:39:28.237Z,50.10
2019-05-22T13:41:58.153Z,48.90
2019-05-22T13:44:29.001Z,48.10
2019-05-22T13:46:58.865Z,49.20
2019-05-22T13:49:30.024Z,49.40
2019-05-22T13:52:00.637Z,49.30
2019-05-22T13:54:31.116Z,48.80
2019-05-22T13:57:01.434Z,48.60
2019-05-22T13:59:32.001Z,49.30
2019-05-22T14:02:02.171Z,50.20
2019-05-22T14:04:32.433Z,49.40
2019-05-22T14:07:03.286Z,49.70
2019-05-22T14:09:33.499Z,49.50
2019-05-22T14:12:04.406Z,49.70
2019-05-22T14:14:34.208Z,50.70
2019-05-22T14:17:04.536Z,51.10
2019-05-22T14:19:34.506Z,50.80
2019-05-22T14:22:05.299Z,50.60
2019-05-22T14:24:35.092Z,51.10
2019-05-22T14:27:05.535Z,50.90
2019-05-22T14:29:35.394Z,51.00
2019-05-22T14:32:07.495Z,51.00
2019-05-22T14:34:37.443Z,51.30
2019-05-22T14:37:08.096Z,51.30
2019-05-22T14:39:39.103Z,52.00
2019-05-22T14:42:09.212Z,51.80
2019-05-22T14:44:39.696Z,52.10
2019-05-22T14:47:14.455Z,52.60
2019-05-22T14:49:41.676Z,51.70
2019-05-22T14:52:11.757Z,52.00
2019-05-22T14:54:41.504Z,51.70
2019-05-22T14:57:12.176Z,52.30
2019-05-22T14:59:42.044Z,53.20
2019-05-22T15:02:12.597Z,53.40
2019-05-22T15:04:42.982Z,51.50
2019-05-22T15:07:13.100Z,51.70
2019-05-22T15:09:42.914Z,51.20
2019-05-22T15:12:12.656Z,51.20
2019-05-22T15:14:42.520Z,52.70
2019-05-22T15:17:28.581Z,52.90
2019-05-22T15:19:43.915Z,52.40
2019-05-22T15:22:14.335Z,53.60
2019-05-22T15:24:44.401Z,54.40
2019-05-22T15:27:14.367Z,54.10
2019-05-22T15:29:44.288Z,55.10
2019-05-22T15:32:15.389Z,56.30
2019-05-22T15:34:45.202Z,54.60
2019-05-22T15:37:16.648Z,54.80
2019-05-22T15:39:47.226Z,54.50
2019-05-22T15:42:19.979Z,53.70
2019-05-22T15:44:50.176Z,53.50
2019-05-22T15:47:19.991Z,53.80
2019-05-22T15:49:51.148Z,54.30
2019-05-22T15:52:23.858Z,56.00
2019-05-22T15:54:54.719Z,55.30
2019-05-22T15:57:24.714Z,55.80
2019-05-22T15:59:54.684Z,54.90
2019-05-22T16:02:26.369Z,54.50
2019-05-22T16:04:57.248Z,54.80
2019-05-22T16:07:28.656Z,54.20
2019-05-22T16:09:58.914Z,54.70
2019-05-22T16:12:29.551Z,55.20
2019-05-22T16:15:01.404Z,55.70
2019-05-22T16:17:32.212Z,54.00
2019-05-22T16:20:05.155Z,54.00
2019-05-22T16:22:35.754Z,54.40
2019-05-22T16:25:07.980Z,53.60
2019-05-22T16:27:41.856Z,52.50
2019-05-22T16:30:12.876Z,52.30
2019-05-22T16:32:42.921Z,52.90
2019-05-22T16:35:13.252Z,53.50
2019-05-22T16:37:43.639Z,53.60
2019-05-22T16:40:14.720Z,53.80
2019-05-22T16:42:44.575Z,52.80
2019-05-22T16:45:15.093Z,51.00
2019-05-22T16:47:45.596Z,50.80
2019-05-22T16:50:16.330Z,50.40
2019-05-22T16:52:47.588Z,49.90
2019-05-22T16:55:18.251Z,49.40
2019-05-22T16:57:48.550Z,50.10
2019-05-22T17:00:19.901Z,49.80
2019-05-22T17:02:50.431Z,49.50
2019-05-22T17:05:22.745Z,49.30
2019-05-22T17:07:52.754Z,49.70
2019-05-22T17:10:25.143Z,50.30
2019-05-22T17:12:55.423Z,49.30
2019-05-22T17:15:26.937Z,49.50
2019-05-22T17:17:57.414Z,50.00
2019-05-22T17:20:28.947Z,49.50
2019-05-22T17:22:58.821Z,49.40
2019-05-22T17:25:30.353Z,49.90
2019-05-22T17:28:00.890Z,50.00
2019-05-22T17:30:30.767Z,49.60
2019-05-22T17:33:01.136Z,50.30
2019-05-22T17:35:31.750Z,49.10
2019-05-22T17:38:02.273Z,49.90
2019-05-22T17:40:32.853Z,51.40
2019-05-22T17:43:03.790Z,53.00
2019-05-22T17:45:34.590Z,52.50
2019-05-22T17:48:04.834Z,51.00
2019-05-22T17:50:34.783Z,51.30
2019-05-22T17:53:06.231Z,52.10
2019-05-22T17:55:39.015Z,52.40
2019-05-22T17:58:08.934Z,52.40
2019-05-22T18:00:40.403Z,52.50
2019-05-22T18:03:10.505Z,52.50
2019-05-22T18:05:41.354Z,52.80
2019-05-22T18:08:11.784Z,53.20
2019-05-22T18:10:45.965Z,52.80
2019-05-22T18:13:16.641Z,53.70
2019-05-22T18:15:47.726Z,54.70
2019-05-22T18:18:19.594Z,55.70
2019-05-22T18:20:50.067Z,56.50
2019-05-22T18:23:20.093Z,56.70
2019-05-22T18:25:49.944Z,56.40
2019-05-22T18:28:20.878Z,57.10
2019-05-22T18:30:50.716Z,57.60
2019-05-22T18:33:20.591Z,58.40
2019-05-22T18:35:50.485Z,59.80
2019-05-22T18:38:20.211Z,61.20
2019-05-22T18:40:50.090Z,61.60
2019-05-22T18:43:22.895Z,62.20
2019-05-22T18:45:51.586Z,63.30
2019-05-22T18:48:21.443Z,63.10
2019-05-22T18:50:52.724Z,62.80
2019-05-22T18:53:22.763Z,64.00
2019-05-22T18:55:52.515Z,64.50
2019-05-22T18:58:22.391Z,64.00
2019-05-22T19:00:52.286Z,64.90
2019-05-22T19:03:22.152Z,63.60
2019-05-22T19:05:52.214Z,62.90
2019-05-22T19:08:22.341Z,62.00
2019-05-22T19:10:52.554Z,61.50
2019-05-22T19:13:22.491Z,62.30
2019-05-22T19:15:52.378Z,61.10
2019-05-22T19:18:22.332Z,61.20
2019-05-22T19:20:52.591Z,63.30
2019-05-22T19:23:22.522Z,62.80
2019-05-22T19:25:52.331Z,62.50
2019-05-22T19:28:22.868Z,63.40
2019-05-22T19:30:53.303Z,63.80
2019-05-22T19:33:23.295Z,64.60
2019-05-22T19:35:53.253Z,64.40
2019-05-22T19:38:23.633Z,63.30
2019-05-22T19:40:53.567Z,62.30
2019-05-22T19:43:23.375Z,61.80
2019-05-22T19:45:53.301Z,63.00
2019-05-22T19:48:23.168Z,63.30
2019-05-22T19:50:53.446Z,63.10
2019-05-22T19:53:24.234Z,63.10
2019-05-22T19:55:54.787Z,63.10
2019-05-22T19:58:24.762Z,63.10
2019-05-22T20:00:54.902Z,62.80
2019-05-22T20:03:25.618Z,64.20
2019-05-22T20:05:55.703Z,65.50
2019-05-22T20:08:26.304Z,65.80
2019-05-22T20:10:56.011Z,66.10
2019-05-22T20:13:26.569Z,66.90
2019-05-22T20:15:56.516Z,66.00
2019-05-22T20:18:26.471Z,65.40
2019-05-22T20:20:56.634Z,66.00
2019-05-22T20:23:36.036Z,66.10
2019-05-22T20:25:58.696Z,66.80
2019-05-22T20:28:29.090Z,67.00
2019-05-22T20:30:59.043Z,66.90
2019-05-22T20:33:29.266Z,66.40
2019-05-22T20:35:59.348Z,67.50
2019-05-22T20:38:29.211Z,67.90
2019-05-22T20:40:59.556Z,68.40
2019-05-22T20:43:31.376Z,69.10
2019-05-22T20:46:03.094Z,69.60
2019-05-22T20:48:33.296Z,70.20
2019-05-22T20:51:04.651Z,69.60
2019-05-22T20:53:52.406Z,69.50
2019-05-22T20:56:07.662Z,69.50
2019-05-22T20:58:39.417Z,69.00
2019-05-22T21:01:11.234Z,69.30
2019-05-22T21:03:42.218Z,70.20
2019-05-22T21:06:15.493Z,71.40
2019-05-22T21:08:47.457Z,71.40
2019-05-22T21:11:17.593Z,70.30
2019-05-22T21:13:47.427Z,70.40
2019-05-22T21:16:17.506Z,70.40
2019-05-22T21:18:49.754Z,70.60
2019-05-22T21:21:20.859Z,71.00
2019-05-22T21:23:50.683Z,70.40
2019-05-22T21:26:20.770Z,71.60
2019-05-22T21:28:51.102Z,70.10
2019-05-22T21:31:21.698Z,69.70
2019-05-22T21:33:52.068Z,70.50
2019-05-22T21:36:23.984Z,70.80
2019-05-22T21:38:53.134Z,71.00
2019-05-22T21:41:23.296Z,70.80
2019-05-22T21:43:54.269Z,70.60
2019-05-22T21:46:24.381Z,71.20
2019-05-22T21:48:55.438Z,73.20
2019-05-22T21:51:25.547Z,73.70
2019-05-22T21:53:55.907Z,73.30
2019-05-22T21:56:25.863Z,72.60
2019-05-22T21:58:56.039Z,72.20
2019-05-22T22:01:27.778Z,71.70
2019-05-22T22:04:00.936Z,72.70
2019-05-22T22:06:33.363Z,72.70
2019-05-22T22:09:03.817Z,72.70
2019-05-22T22:11:34.699Z,72.70
2019-05-22T22:14:05.050Z,73.10
2019-05-22T22:16:35.418Z,73.10
2019-05-22T22:19:07.610Z,72.60
2019-05-22T22:21:37.569Z,72.60
2019-05-22T22:24:08.553Z,72.40
2019-05-22T22:26:38.769Z,72.10
2019-05-22T22:29:09.510Z,72.20
2019-05-22T22:31:39.789Z,72.40
2019-05-22T22:34:13.591Z,72.40
2019-05-22T22:36:43.682Z,72.00
2019-05-22T22:39:15.139Z,72.30
2019-05-22T22:41:46.218Z,72.90
2019-05-22T22:44:16.578Z,73.50
2019-05-22T22:46:48.218Z,73.40
2019-05-22T22:49:20.179Z,73.20
2019-05-22T22:51:50.542Z,73.70
2019-05-22T22:54:21.658Z,73.70
2019-05-22T22:56:51.865Z,73.90
2019-05-22T22:59:21.874Z,73.40
2019-05-22T23:01:53.559Z,73.60
2019-05-22T23:04:26.678Z,73.70
2019-05-22T23:06:59.783Z,73.50
2019-05-22T23:09:30.635Z,74.30
2019-05-22T23:12:01.628Z,74.10
2019-05-22T23:14:33.007Z,74.40
2019-05-22T23:17:03.901Z,73.60
2019-05-22T23:22:16.059Z,74.50
2019-05-22T23:24:46.610Z,75.60
2019-05-22T23:27:16.293Z,75.70
2019-05-22T23:29:46.291Z,75.20
2019-05-22T23:32:17.907Z,75.10
2019-05-22T23:34:48.396Z,75.50
2019-05-22T23:37:20.563Z,75.90
2019-05-22T23:39:53.161Z,75.70
2019-05-22T23:42:27.266Z,75.40
2019-05-22T23:44:58.651Z,75.40
2019-05-22T23:47:28.649Z,75.10
2019-05-22T23:49:58.671Z,74.70
2019-05-22T23:52:29.000Z,75.00
2019-05-22T23:54:59.736Z,75.40
2019-05-22T23:57:29.515Z,75.70
